Data for 04/29/2010

Time Sea-Level Adjusted Pressure Absolute Pressure Temperature Relative Humidity Dew Point   
(mb) (inHg) (mb) (inHg) (C) (F) (%) (C) (F)
00:05 1000 29.53 829 24.48 3.3 38 39 -9.3 15.2
00:10 1000 29.53 829 24.48 3.3 37.9 39 -9.3 15.3
00:15 1000 29.53 829 24.48 3.3 38 38 -9.9 14.3
00:20 1000 29.53 829 24.48 3.5 38.2 36 -10.3 13.5
00:25 1000 29.53 829 24.48 3.6 38.6 35 -10.4 13.3
00:30 999 29.5 829 24.48 3.7 38.6 34 -10.9 12.4
00:35 999 29.5 829 24.48 3.7 38.7 34 -10.6 12.9
00:40 999 29.5 829 24.48 3.6 38.5 35 -10.5 13.1
00:45 999 29.5 829 24.48 3.5 38.3 35 -10.5 13.1
00:50 999 29.5 828 24.45 3.6 38.4 36 -10.3 13.5
00:55 999 29.5 828 24.45 3.6 38.5 35 -10.6 12.9
01:00 999 29.5 829 24.48 3.7 38.6 36 -9.9 14.2
01:05 999 29.5 829 24.48 3.5 38.3 37 -9.7 14.5
01:10 999 29.5 829 24.48 3.4 38.2 38 -9.7 14.6
01:15 999 29.5 829 24.48 3.2 37.8 40 -9.2 15.4
01:20 999 29.5 829 24.48 3.2 37.7 39 -9.5 14.8
01:25 999 29.5 829 24.48 3.2 37.8 39 -9.5 14.9
01:30 999 29.5 829 24.48 3.1 37.7 40 -9.2 15.4
01:35 999 29.5 829 24.48 3.1 37.5 42 -8.7 16.4
01:40 999 29.5 829 24.48 3.1 37.5 40 -9.1 15.6
01:45 999 29.5 829 24.48 3.1 37.6 40 -9.4 15.2
01:50 1000 29.53 829 24.48 3.2 37.7 41 -9 15.9
01:55 1000 29.53 829 24.48 3 37.4 47 -7.2 19.1
02:00 1000 29.53 829 24.48 2.6 36.7 49 -7 19.4
02:05 1000 29.53 829 24.48 2.5 36.5 46 -8.1 17.4
02:10 1000 29.53 829 24.48 2.5 36.5 48 -7.5 18.6
02:15 1000 29.53 829 24.48 2.3 36.2 50 -7.1 19.3
02:20 1000 29.53 829 24.48 2.2 36 52 -6.8 19.8
02:25 1000 29.53 829 24.48 2 35.6 51 -7 19.3
02:30 1000 29.53 829 24.48 2.1 35.8 50 -7.2 19
02:35 1000 29.53 829 24.48 2.2 35.9 50 -7.1 19.2
02:40 1000 29.53 829 24.48 2.1 35.8 53 -6.6 20.2
02:45 1000 29.53 829 24.48 2.1 35.8 52 -6.7 20
02:50 1000 29.53 829 24.48 1.9 35.4 57 -5.8 21.6
02:55 1000 29.53 829 24.48 1.6 34.8 56 -6.2 20.9
03:00 1000 29.53 829 24.48 1.6 34.8 58 -5.7 21.7
03:05 1000 29.53 829 24.48 1.5 34.8 58 -5.9 21.3
03:10 1000 29.53 829 24.48 1.6 34.9 56 -6.2 20.8
03:15 1000 29.53 829 24.48 1.7 35 56 -6.1 21
03:20 1000 29.53 829 24.48 1.7 35 56 -6.1 21
03:25 1000 29.53 829 24.48 1.7 35 55 -6.4 20.5
03:30 1000 29.53 829 24.48 1.6 34.9 58 -5.9 21.4
03:35 1000 29.53 829 24.48 1.6 34.8 57 -6.1 21
03:40 1000 29.53 829 24.48 1.7 35 53 -6.9 19.7
03:45 1000 29.53 829 24.48 1.9 35.4 52 -7 19.3
03:50 1000 29.53 829 24.48 2 35.6 51 -7.1 19.2
03:55 1000 29.53 829 24.48 2 35.6 52 -6.7 19.9
04:00 1000 29.53 829 24.48 1.9 35.4 53 -6.7 20
04:05 1000 29.53 829 24.48 1.8 35.3 54 -6.6 20.2
04:10 1000 29.53 829 24.48 1.7 35 54 -6.7 19.9
04:15 1000 29.53 829 24.48 1.7 35.1 53 -6.8 19.8
04:20 1000 29.53 829 24.48 1.7 35 55 -6.4 20.5
04:25 1000 29.53 829 24.48 1.6 34.8 55 -6.5 20.4
04:30 999 29.5 829 24.48 1.5 34.7 54 -6.8 19.7
04:35 999 29.5 829 24.48 1.6 34.9 53 -7.1 19.3
04:40 999 29.5 829 24.48 1.7 35.1 52 -7 19.4
04:45 999 29.5 828 24.45 1.8 35.3 53 -6.9 19.6
04:50 999 29.5 828 24.45 1.8 35.2 53 -6.9 19.6
04:55 999 29.5 828 24.45 1.8 35.3 50 -7.4 18.6
05:00 999 29.5 828 24.45 1.8 35.3 51 -7.2 19.1
05:05 999 29.5 828 24.45 1.8 35.3 51 -7.4 18.7
05:10 999 29.5 828 24.45 1.9 35.3 51 -7.3 18.9
05:15 999 29.5 828 24.45 1.9 35.4 52 -7 19.4
05:20 999 29.5 828 24.45 1.8 35.3 52 -7 19.4
05:25 999 29.5 828 24.45 1.8 35.2 51 -7.3 18.8
05:30 999 29.5 828 24.45 1.7 35.1 52 -7.2 19.1
05:35 999 29.5 828 24.45 1.7 35.1 52 -7.1 19.3
05:40 999 29.5 828 24.45 1.8 35.2 52 -7.2 19.1
05:45 999 29.5 828 24.45 1.7 35.1 52 -7.2 19
05:50 999 29.5 828 24.45 1.7 35.1 52 -7.1 19.3
05:55 999 29.5 828 24.45 1.7 35.1 52 -7 19.4
06:00 999 29.5 828 24.45 1.7 35.1 52 -7.1 19.2
06:05 999 29.5 828 24.45 1.7 35.1 52 -7.1 19.3
06:10 999 29.5 828 24.45 1.7 35 53 -6.9 19.5
06:15 999 29.5 828 24.45 1.6 35 53 -7 19.5
06:20 999 29.5 828 24.45 1.7 35.1 51 -7.3 18.9
06:25 999 29.5 828 24.45 1.7 35.1 52 -7.2 19.1
06:30 999 29.5 828 24.45 1.8 35.2 53 -6.9 19.6
06:35 999 29.5 828 24.45 1.6 35 53 -7 19.4
06:40 999 29.5 828 24.45 1.7 35 53 -6.8 19.7
06:45 999 29.5 828 24.45 1.7 35 53 -7 19.5
06:50 999 29.5 828 24.45 1.7 35 53 -7 19.5
06:55 999 29.5 828 24.45 1.7 35 52 -7.1 19.3
07:00 999 29.5 828 24.45 1.8 35.2 52 -6.9 19.5
07:05 999 29.5 828 24.45 1.7 35.1 52 -7.1 19.2
07:10 999 29.5 828 24.45 1.8 35.2 52 -7 19.4
07:15 999 29.5 828 24.45 1.8 35.2 53 -6.7 19.9
07:20 999 29.5 828 24.45 1.8 35.2 55 -6.4 20.5
07:25 999 29.5 828 24.45 1.6 34.8 56 -6.2 20.8
07:30 999 29.5 828 24.45 1.4 34.5 57 -6.2 20.8
07:35 999 29.5 828 24.45 1.5 34.7 55 -6.7 20
07:40 999 29.5 828 24.45 1.6 34.9 58 -5.7 21.8
07:45 999 29.5 828 24.45 1.4 34.6 58 -5.9 21.4
07:50 999 29.5 828 24.45 1.5 34.7 58 -5.8 21.6
07:55 999 29.5 828 24.45 1.2 34.1 66 -4.5 24
08:00 999 29.5 828 24.45 0.7 33.2 70 -4.2 24.5
08:05 999 29.5 828 24.45 0.3 32.5 75 -3.7 25.3
08:10 999 29.5 829 24.48 0.1 32.2 75 -3.8 25.1
08:15 999 29.5 829 24.48 0.1 32.2 78 -3.3 26
08:20 999 29.5 829 24.48 0 32.1 78 -3.3 26.1
08:25 1000 29.53 829 24.48 -0.1 31.9 82 -2.8 26.9
08:30 1000 29.53 829 24.48 -0.4 31.3 87 -2.2 28
08:35 1000 29.53 829 24.48 -0.8 30.6 89 -2.3 27.8
08:40 1000 29.53 829 24.48 -0.9 30.4 90 -2.3 27.9
08:45 1000 29.53 829 24.48 -0.9 30.4 91 -2.2 28.1
08:50 1000 29.53 829 24.48 -1 30.3 92 -2.1 28.2
08:55 1000 29.53 829 24.48 -1 30.3 92 -2 28.3
09:00 1000 29.53 829 24.48 -1 30.2 94 -1.9 28.6
09:05 1000 29.53 829 24.48 -1 30.2 94 -1.9 28.5
09:10 1000 29.53 829 24.48 -1.1 30.1 94 -1.9 28.7
09:15 1000 29.53 829 24.48 -1.1 30 95 -1.8 28.7
09:20 1000 29.53 829 24.48 -1.1 30 95 -1.8 28.7
09:25 1000 29.53 829 24.48 -1.2 29.9 95 -1.8 28.7
09:30 1000 29.53 829 24.48 -1.1 30 95 -1.8 28.7
09:35 1000 29.53 829 24.48 -1.1 29.9 95 -1.8 28.8
09:40 1000 29.53 829 24.48 -1.1 30 96 -1.8 28.8
09:45 1000 29.53 829 24.48 -1.2 29.9 96 -1.8 28.8
09:50 1000 29.53 829 24.48 -1.1 30 96 -1.7 29
09:55 1000 29.53 829 24.48 -1.1 30 96 -1.7 28.9
10:00 1000 29.53 829 24.48 -1.1 30.1 96 -1.6 29.1
10:05 1000 29.53 829 24.48 -1 30.2 96 -1.6 29.2
10:10 1000 29.53 829 24.48 -1 30.1 96 -1.5 29.2
10:15 1000 29.53 829 24.48 -1.1 30.1 97 -1.5 29.2
10:20 1000 29.53 830 24.51 -0.9 30.3 96 -1.4 29.4
10:25 1000 29.53 829 24.48 -1 30.2 97 -1.5 29.3
10:30 1000 29.53 829 24.48 -1 30.1 97 -1.5 29.3
10:35 1000 29.53 829 24.48 -1 30.2 97 -1.5 29.3
10:40 1000 29.53 829 24.48 -1 30.2 97 -1.5 29.3
10:45 1000 29.53 830 24.51 -1 30.3 97 -1.4 29.4
10:50 1000 29.53 830 24.51 -0.9 30.3 96 -1.4 29.4
10:55 1000 29.53 830 24.51 -1 30.2 97 -1.5 29.4
11:00 1000 29.53 830 24.51 -0.9 30.4 96 -1.4 29.5
11:05 1000 29.53 829 24.48 -0.9 30.5 96 -1.4 29.5
11:10 1000 29.53 830 24.51 -0.9 30.4 96 -1.4 29.4
11:15 1000 29.53 830 24.51 -0.9 30.3 96 -1.5 29.3
11:20 1000 29.53 830 24.51 -0.9 30.4 96 -1.5 29.3
11:25 1000 29.53 830 24.51 -0.9 30.4 96 -1.4 29.4
11:30 1000 29.53 830 24.51 -0.8 30.5 96 -1.4 29.4
11:35 1000 29.53 830 24.51 -0.7 30.7 95 -1.4 29.5
11:40 1000 29.53 830 24.51 -0.7 30.7 95 -1.4 29.6
11:45 1000 29.53 830 24.51 -0.6 30.8 95 -1.4 29.5
11:50 1000 29.53 830 24.51 -0.6 30.9 94 -1.4 29.4
11:55 1000 29.53 830 24.51 -0.6 31 94 -1.4 29.4
12:00 1000 29.53 830 24.51 -0.4 31.2 93 -1.5 29.3
12:05 1000 29.53 830 24.51 -0.3 31.4 92 -1.5 29.3
12:10 1000 29.53 830 24.51 -0.3 31.5 91 -1.5 29.3
12:15 1000 29.53 830 24.51 -0.2 31.7 90 -1.7 29
12:20 1000 29.53 830 24.51 0 32 88 -1.7 28.9
12:25 1000 29.53 830 24.51 -0 32 88 -1.8 28.8
12:30 1000 29.53 830 24.51 0.1 32.1 88 -1.8 28.8
12:35 1000 29.53 830 24.51 0.2 32.4 85 -1.9 28.5
12:40 1000 29.53 830 24.51 0.3 32.5 84 -2.2 28
12:45 1001 29.56 830 24.51 0.3 32.6 84 -2.1 28.2
12:50 1001 29.56 830 24.51 0.3 32.6 84 -2.1 28.2
12:55 1001 29.56 830 24.51 0.4 32.8 84 -2 28.5
13:00 1001 29.56 830 24.51 0.3 32.5 86 -1.8 28.7
13:05 1001 29.56 830 24.51 0.3 32.5 84 -2.1 28.3
13:10 1001 29.56 830 24.51 0.2 32.4 87 -1.8 28.8
13:15 1001 29.56 830 24.51 0.1 32.2 87 -1.8 28.8
13:20 1001 29.56 830 24.51 0.1 32.2 88 -1.7 29
13:25 1001 29.56 830 24.51 -0.1 31.9 91 -1.4 29.4
13:30 1001 29.56 830 24.51 -0 32 91 -1.4 29.5
13:35 1001 29.56 830 24.51 0.1 32.1 89 -1.5 29.2
13:40 1001 29.56 830 24.51 0.1 32.2 89 -1.5 29.4
13:45 1001 29.56 830 24.51 -0 31.9 90 -1.5 29.2
13:50 1001 29.56 830 24.51 0.1 32.2 90 -1.4 29.5
13:55 1001 29.56 830 24.51 0.2 32.4 87 -1.6 29.1
14:00 1001 29.56 830 24.51 0.4 32.7 86 -1.6 29.1
14:05 1001 29.56 830 24.51 0.4 32.8 87 -1.5 29.3
14:10 1001 29.56 830 24.51 0.5 33 84 -1.8 28.7
14:15 1001 29.56 830 24.51 1.1 34 76 -2.7 27.2
14:20 1001 29.56 830 24.51 1.7 35 72 -2.7 27.1
14:25 1001 29.56 830 24.51 1.8 35.3 72 -2.6 27.3
14:30 1001 29.56 830 24.51 1.7 35 75 -2.2 28
14:35 1001 29.56 830 24.51 1.5 34.7 75 -2.4 27.7
14:40 1001 29.56 831 24.54 1.7 35 77 -1.9 28.5
14:45 1001 29.56 831 24.54 1.5 34.7 78 -1.8 28.7
14:50 1002 29.59 831 24.54 1.4 34.5 80 -1.6 29.1
14:55 1002 29.59 831 24.54 1.3 34.3 82 -1.5 29.3
15:00 1002 29.59 831 24.54 1.2 34.1 85 -1.1 30.1
15:05 1002 29.59 831 24.54 1.3 34.3 85 -0.9 30.3
15:10 1002 29.59 831 24.54 1.1 34 88 -0.6 30.8
15:15 1002 29.59 831 24.54 1.1 34 88 -0.6 30.9
15:20 1002 29.59 831 24.54 1 33.9 89 -0.5 31.1
15:25 1002 29.59 831 24.54 0.8 33.5 91 -0.4 31.2
15:30 1002 29.59 831 24.54 0.8 33.5 91 -0.5 31.2
15:35 1002 29.59 831 24.54 0.6 33.1 93 -0.4 31.3
15:40 1002 29.59 832 24.57 0.5 32.8 94 -0.4 31.4
15:45 1002 29.59 832 24.57 0.5 32.9 94 -0.4 31.3
15:50 1002 29.59 832 24.57 0.4 32.7 94 -0.4 31.3
15:55 1003 29.62 832 24.57 0.3 32.5 95 -0.4 31.2
16:00 1003 29.62 832 24.57 0.2 32.4 96 -0.4 31.2
16:05 1003 29.62 832 24.57 0.2 32.4 96 -0.4 31.3
16:10 1003 29.62 832 24.57 0.2 32.4 96 -0.4 31.4
16:15 1003 29.62 832 24.57 0.3 32.5 96 -0.3 31.5
16:20 1003 29.62 832 24.57 0.4 32.7 95 -0.3 31.5
16:25 1003 29.62 832 24.57 0.5 32.8 95 -0.2 31.6
16:30 1003 29.62 832 24.57 0.5 32.9 95 -0.2 31.6
16:35 1003 29.62 832 24.57 0.5 32.9 95 -0.2 31.7
16:40 1003 29.62 832 24.57 0.6 33.1 95 -0.1 31.7
16:45 1003 29.62 832 24.57 0.8 33.4 94 -0.1 31.9
16:50 1003 29.62 832 24.57 0.8 33.5 93 -0.1 31.8
16:55 1003 29.62 832 24.57 0.9 33.6 93 -0 31.9
17:00 1003 29.62 832 24.57 1 33.9 93 -0 31.9
17:05 1003 29.62 832 24.57 0.9 33.7 93 -0.1 31.9
17:10 1003 29.62 833 24.6 0.8 33.4 94 -0.1 31.8
17:15 1004 29.65 833 24.6 0.6 33.1 92 -0.5 31
17:20 1004 29.65 833 24.6 0.4 32.8 92 -0.7 30.7
17:25 1004 29.65 833 24.6 0.4 32.6 93 -0.7 30.8
17:30 1004 29.65 833 24.6 0.4 32.7 93 -0.6 30.9
17:35 1004 29.65 833 24.6 0.4 32.7 93 -0.7 30.8
17:40 1004 29.65 833 24.6 0.3 32.6 93 -0.7 30.8
17:45 1004 29.65 833 24.6 0.3 32.6 93 -0.6 30.9
17:50 1004 29.65 833 24.6 0.4 32.7 93 -0.6 30.9
17:55 1004 29.65 833 24.6 0.3 32.5 94 -0.6 31
18:00 1004 29.65 834 24.63 0.2 32.4 94 -0.7 30.8
18:05 1005 29.68 834 24.63 0.1 32.2 94 -0.7 30.7
18:10 1005 29.68 834 24.63 -0.1 31.9 94 -0.8 30.5
18:15 1005 29.68 834 24.63 -0.1 31.8 95 -0.8 30.6
18:20 1005 29.68 834 24.63 -0 31.9 96 -0.7 30.8
18:25 1005 29.68 834 24.63 0 32.1 96 -0.6 31
18:30 1005 29.68 834 24.63 0 32 95 -0.7 30.8
18:35 1005 29.68 834 24.63 -0.1 31.8 95 -0.9 30.4
18:40 1005 29.68 834 24.63 -0.2 31.7 93 -1.1 30
18:45 1005 29.68 834 24.63 -0.3 31.5 93 -1.2 29.8
18:50 1005 29.68 834 24.63 -0.3 31.4 94 -1.2 29.9
18:55 1005 29.68 834 24.63 -0.3 31.5 94 -1.2 29.9
19:00 1005 29.68 835 24.66 -0.3 31.4 93 -1.3 29.6
19:05 1005 29.68 835 24.66 -0.3 31.4 92 -1.5 29.4
19:10 1005 29.68 835 24.66 -0.3 31.5 93 -1.3 29.6
19:15 1006 29.71 835 24.66 -0.4 31.4 94 -1.2 29.8
19:20 1006 29.71 835 24.66 -0.4 31.2 94 -1.3 29.7
19:25 1006 29.71 835 24.66 -0.5 31.1 95 -1.2 29.8
19:30 1006 29.71 835 24.66 -0.5 31.1 95 -1.2 29.8
19:35 1006 29.71 835 24.66 -0.6 31 95 -1.2 29.8
19:40 1006 29.71 835 24.66 -0.6 30.9 96 -1.2 29.8
19:45 1006 29.71 835 24.66 -0.7 30.8 96 -1.2 29.9
19:50 1006 29.71 835 24.66 -0.7 30.8 96 -1.2 29.8
19:55 1006 29.71 835 24.66 -0.7 30.7 97 -1.2 29.8
20:00 1006 29.71 835 24.66 -0.8 30.6 97 -1.2 29.8
20:05 1006 29.71 835 24.66 -0.8 30.6 97 -1.2 29.8
20:10 1006 29.71 835 24.66 -0.8 30.6 97 -1.2 29.8
20:15 1006 29.71 835 24.66 -0.8 30.6 97 -1.2 29.9
20:20 1006 29.71 835 24.66 -0.8 30.6 97 -1.2 29.9
20:25 1006 29.71 836 24.69 -0.9 30.5 97 -1.2 29.8
20:30 1006 29.71 836 24.69 -0.9 30.4 97 -1.3 29.7
20:35 1006 29.71 836 24.69 -0.9 30.4 97 -1.3 29.7
20:40 1006 29.71 836 24.69 -0.9 30.4 97 -1.3 29.7
20:45 1006 29.71 836 24.69 -0.9 30.4 97 -1.3 29.7
20:50 1007 29.74 836 24.69 -0.9 30.5 97 -1.2 29.8
20:55 1007 29.74 836 24.69 -0.9 30.4 97 -1.3 29.7
21:00 1007 29.74 836 24.69 -0.9 30.4 97 -1.3 29.7
21:05 1007 29.74 836 24.69 -0.9 30.4 97 -1.3 29.7
21:10 1007 29.74 836 24.69 -0.9 30.4 97 -1.2 29.8
21:15 1007 29.74 836 24.69 -0.9 30.3 97 -1.3 29.7
21:20 1007 29.74 836 24.69 -0.9 30.4 98 -1.3 29.7
21:25 1007 29.74 836 24.69 -0.9 30.4 98 -1.2 29.8
21:30 1007 29.74 836 24.69 -0.9 30.3 97 -1.3 29.7
21:35 1007 29.74 836 24.69 -0.9 30.3 98 -1.2 29.8
21:40 1007 29.74 836 24.69 -0.9 30.3 97 -1.3 29.7
21:45 1007 29.74 836 24.69 -0.9 30.3 98 -1.3 29.7
21:50 1007 29.74 836 24.69 -1 30.3 98 -1.3 29.6
21:55 1007 29.74 836 24.69 -1 30.2 98 -1.3 29.6
22:00 1007 29.74 837 24.72 -1 30.2 98 -1.3 29.6
22:05 1007 29.74 837 24.72 -1 30.2 98 -1.3 29.6
22:10 1007 29.74 837 24.72 -1 30.2 98 -1.3 29.6
22:15 1008 29.77 837 24.72 -1 30.2 97 -1.4 29.4
22:20 1008 29.77 837 24.72 -1 30.1 97 -1.5 29.3
22:25 1008 29.77 837 24.72 -1 30.2 97 -1.5 29.4
22:30 1008 29.77 837 24.72 -1 30.1 97 -1.5 29.3
22:35 1008 29.77 837 24.72 -1.1 30.1 97 -1.5 29.2
22:40 1008 29.77 837 24.72 -1.1 30 96 -1.6 29.1
22:45 1008 29.77 837 24.72 -1.1 30 96 -1.6 29.1
22:50 1008 29.77 837 24.72 -1.1 30 96 -1.6 29.1
22:55 1008 29.77 837 24.72 -1.1 30.1 97 -1.6 29.2
23:00 1008 29.77 837 24.72 -1.1 30 97 -1.5 29.3
23:05 1008 29.77 837 24.72 -1 30.2 97 -1.4 29.4
23:10 1008 29.77 837 24.72 -1 30.2 97 -1.4 29.5
23:15 1008 29.77 837 24.72 -1 30.1 97 -1.5 29.4
23:20 1008 29.77 837 24.72 -1 30.1 97 -1.5 29.4
23:25 1008 29.77 837 24.72 -1 30.2 97 -1.4 29.5
23:30 1008 29.77 837 24.72 -1 30.3 97 -1.4 29.5
23:35 1008 29.77 837 24.72 -1 30.3 97 -1.3 29.6
23:40 1008 29.77 837 24.72 -1 30.3 97 -1.3 29.6
23:45 1008 29.77 837 24.72 -1 30.2 97 -1.4 29.5
23:50 1008 29.77 837 24.72 -1.1 30.1 97 -1.4 29.4
23:55 1008 29.77 837 24.72 -1.1 30 97 -1.5 29.4
24:00 1008 29.77 837 24.72 -1.2 29.9 97 -1.5 29.2